Time;durP1;ratioP1;P1;durP2;ratioP2;P2;SDS_P1;SDS_P2;PMS_P1;PMS_P2;Temp;Humidity;BMP_temperature;BMP_pressure;BME280_temperature;BME280_humidity;BME280_pressure;Samples;Min_cycle;Max_cycle;Signal;HPM_P1;HPM_P2
2021/10/17 00:01:07;;;;;;;53.60;25.50;;;;;;;6.54;80.37;98957.68;113816;1197;138073;-82
2021/10/17 00:03:34;;;;;;;55.70;25.70;;;;;;;6.55;80.63;98959.72;113965;1203;22630;-82
2021/10/17 00:06:01;;;;;;;54.60;25.20;;;;;;;6.58;80.68;98962.73;114021;1203;137891;-82
2021/10/17 00:08:28;;;;;;;46.20;24.00;;;;;;;6.60;80.62;98957.27;114157;1203;22466;-82
2021/10/17 00:11:09;;;;;;;57.40;25.90;;;;;;;6.57;80.56;98960.54;113796;1203;22440;-82
2021/10/17 00:13:37;;;;;;;47.20;24.60;;;;;;;6.54;80.71;98956.10;113677;1201;138220;-82
2021/10/17 00:16:05;;;;;;;50.80;25.50;;;;;;;6.51;80.33;98959.21;114452;1203;22464;-82
2021/10/17 00:18:32;;;;;;;52.20;26.00;;;;;;;6.51;80.81;98960.05;113988;1203;137904;-82
2021/10/17 00:20:59;;;;;;;52.70;26.60;;;;;;;6.54;80.87;98962.55;113725;1197;22691;-82
2021/10/17 00:23:40;;;;;;;53.30;26.60;;;;;;;6.52;80.54;98964.25;113883;1203;138132;-82
2021/10/17 00:26:07;;;;;;;53.00;25.20;;;;;;;6.49;80.53;98962.66;113770;1203;22430;-82
2021/10/17 00:28:34;;;;;;;53.20;25.00;;;;;;;6.47;80.71;98961.88;114320;1202;22452;-82
2021/10/17 00:31:01;;;;;;;51.60;24.10;;;;;;;6.45;80.57;98962.83;114191;1196;138229;-82
2021/10/17 00:33:42;;;;;;;51.40;24.50;;;;;;;6.45;80.64;98958.86;113974;1203;22455;-82
2021/10/17 00:36:26;;;;;;;54.60;25.70;;;;;;;6.45;80.63;98960.23;113725;1203;137465;-82
2021/10/17 00:38:53;;;;;;;51.40;24.40;;;;;;;6.44;80.74;98953.41;114007;1203;22437;-82
2021/10/17 00:41:20;;;;;;;51.80;24.50;;;;;;;6.43;80.58;98953.91;114248;1196;23157;-82
2021/10/17 00:43:47;;;;;;;50.40;25.40;;;;;;;6.43;80.34;98954.84;114241;1202;137889;-82
2021/10/17 00:46:19;;;;;;;53.20;25.20;;;;;;;6.42;80.53;98952.95;114408;1202;24901;-82
2021/10/17 00:48:46;;;;;;;58.20;26.80;;;;;;;6.42;80.54;98956.08;113566;1202;137955;-84
2021/10/17 00:51:15;;;;;;;56.90;27.10;;;;;;;6.41;80.40;98955.83;114121;1196;22442;-82
2021/10/17 00:53:43;;;;;;;51.00;26.90;;;;;;;6.35;80.22;98956.65;114314;1204;137567;-82
2021/10/17 00:56:10;;;;;;;56.70;26.50;;;;;;;6.31;80.29;98958.19;114142;1203;23094;-82
2021/10/17 00:58:51;;;;;;;54.70;28.20;;;;;;;6.25;80.32;98957.58;113872;1189;24012;-82
2021/10/17 01:01:18;;;;;;;52.10;25.60;;;;;;;6.23;80.32;98955.99;113884;1196;137651;-82
2021/10/17 01:03:45;;;;;;;53.50;26.50;;;;;;;6.21;80.47;98948.30;114055;1202;22282;-82
2021/10/17 01:06:13;;;;;;;57.00;27.90;;;;;;;6.18;80.48;98950.15;114152;1202;137654;-82
2021/10/17 01:08:40;;;;;;;55.40;28.60;;;;;;;6.14;80.48;98951.33;114053;1196;22475;-82
2021/10/17 01:11:09;;;;;;;64.90;28.90;;;;;;;6.12;80.78;98953.55;113644;1198;22450;-82
2021/10/17 01:13:36;;;;;;;58.70;28.00;;;;;;;6.12;80.73;98954.98;113591;1204;138165;-82
2021/10/17 01:16:04;;;;;;;50.20;25.90;;;;;;;6.12;80.72;98951.06;113599;1204;22549;-82
2021/10/17 01:18:38;;;;;;;49.00;25.50;;;;;;;6.12;80.93;98953.39;113490;1204;138170;-82
2021/10/17 01:21:10;;;;;;;53.50;26.30;;;;;;;6.14;81.16;98953.32;114126;1196;22469;-82
2021/10/17 01:23:39;;;;;;;57.30;26.60;;;;;;;6.10;81.05;98950.56;113853;1195;137621;-81
2021/10/17 01:26:20;;;;;;;52.50;24.90;;;;;;;6.06;81.29;98951.63;113574;1202;22451;-82
2021/10/17 01:28:48;;;;;;;53.20;26.00;;;;;;;6.04;81.09;98949.70;114077;1203;22462;-81
2021/10/17 01:31:15;;;;;;;56.80;26.00;;;;;;;6.05;81.41;98946.14;113974;1196;138049;-82
2021/10/17 01:33:42;;;;;;;48.00;24.20;;;;;;;6.07;81.75;98946.39;114110;1203;23094;-82
2021/10/17 01:36:09;;;;;;;54.10;25.60;;;;;;;6.06;81.58;98948.13;113689;1203;137538;-82
2021/10/17 01:38:36;;;;;;;52.00;25.90;;;;;;;6.04;81.69;98946.89;114390;1203;23163;-82
2021/10/17 01:41:03;;;;;;;49.30;23.60;;;;;;;6.04;81.73;98946.14;114051;1196;22448;-82
2021/10/17 01:43:31;;;;;;;45.80;23.50;;;;;;;6.06;81.85;98950.75;114065;1196;138176;-81
2021/10/17 01:46:02;;;;;;;48.50;24.10;;;;;;;6.09;81.86;98950.52;114665;1196;22467;-82
2021/10/17 01:48:29;;;;;;;50.30;25.30;;;;;;;6.14;82.22;98948.77;114514;1202;137399;-82
2021/10/17 01:50:58;;;;;;;54.20;25.70;;;;;;;6.16;81.90;98947.21;113897;1203;24048;-82
2021/10/17 01:53:28;;;;;;;51.40;25.60;;;;;;;6.17;81.62;98944.54;114504;1196;25093;-82
2021/10/17 01:56:00;;;;;;;49.50;25.50;;;;;;;6.17;81.84;98942.96;114134;1203;137345;-82
2021/10/17 01:58:31;;;;;;;53.10;26.20;;;;;;;6.19;81.64;98939.06;114126;1203;22381;-83
2021/10/17 02:00:58;;;;;;;50.10;24.20;;;;;;;6.21;81.40;98942.81;113907;1203;137871;-82
2021/10/17 02:03:25;;;;;;;55.70;26.80;;;;;;;6.15;81.20;98944.13;114452;1196;22450;-82
2021/10/17 02:05:52;;;;;;;52.40;28.30;;;;;;;6.12;81.46;98938.08;114491;1202;138444;-82
2021/10/17 02:08:36;;;;;;;51.20;26.80;;;;;;;6.12;81.66;98937.01;115433;1203;23181;-82
2021/10/17 02:11:03;;;;;;;52.20;25.60;;;;;;;6.11;81.47;98933.14;114135;1202;22475;-83
2021/10/17 02:13:32;;;;;;;54.10;24.70;;;;;;;6.12;81.41;98931.05;114072;1196;138704;-82
2021/10/17 02:15:59;;;;;;;48.70;25.10;;;;;;;6.09;81.42;98932.95;113877;1203;25126;-82
2021/10/17 02:18:26;;;;;;;54.80;27.00;;;;;;;6.07;81.45;98935.48;114182;1203;138121;-82
2021/10/17 02:21:07;;;;;;;56.00;27.80;;;;;;;6.01;81.59;98941.08;115212;1203;22144;-82
2021/10/17 02:23:49;;;;;;;55.50;27.40;;;;;;;5.99;81.93;98937.64;114180;1198;137911;-82
2021/10/17 02:26:16;;;;;;;51.40;25.00;;;;;;;5.99;82.00;98936.48;114411;1202;22514;-82
2021/10/17 02:29:02;;;;;;;54.00;26.10;;;;;;;6.02;82.09;98933.35;113880;1202;22484;-83
2021/10/17 02:31:32;;;;;;;50.30;24.60;;;;;;;6.05;82.08;98932.23;114092;1198;137844;-83
2021/10/17 02:33:59;;;;;;;59.70;28.60;;;;;;;6.05;81.87;98922.85;115117;1198;22471;-82
2021/10/17 02:36:27;;;;;;;58.90;28.80;;;;;;;6.07;82.06;98919.98;114111;1204;137691;-83
2021/10/17 02:38:53;;;;;;;59.30;29.20;;;;;;;6.09;81.96;98923.30;113895;1203;22440;-83
2021/10/17 02:41:20;;;;;;;59.90;28.70;;;;;;;6.09;81.83;98923.68;114186;1204;22428;-82
2021/10/17 02:43:47;;;;;;;57.90;29.80;;;;;;;6.06;81.85;98923.84;114186;1202;137287;-81
2021/10/17 02:46:14;;;;;;;61.70;29.90;;;;;;;6.06;81.75;98916.06;114777;1203;22428;-81
2021/10/17 02:48:42;;;;;;;57.60;29.30;;;;;;;6.05;81.67;98914.48;114242;1202;137557;-80
2021/10/17 02:51:09;;;;;;;63.40;30.50;;;;;;;6.01;81.87;98913.18;114065;1203;22462;-81
2021/10/17 02:53:36;;;;;;;66.10;30.70;;;;;;;5.94;81.83;98916.73;114321;1197;138264;-81
2021/10/17 02:56:03;;;;;;;56.90;28.30;;;;;;;5.91;81.93;98915.71;114925;1204;22448;-81
2021/10/17 02:58:30;;;;;;;56.70;28.80;;;;;;;5.90;82.17;98918.77;114545;1204;22313;-81
2021/10/17 03:01:01;;;;;;;64.30;29.60;;;;;;;5.89;82.29;98914.88;114370;1199;137436;-81
2021/10/17 03:03:27;;;;;;;58.90;30.40;;;;;;;5.87;82.31;98913.35;114455;1196;24101;-83
2021/10/17 03:05:54;;;;;;;69.30;33.10;;;;;;;5.85;82.27;98912.90;114145;1203;138287;-81
2021/10/17 03:08:21;;;;;;;64.40;30.70;;;;;;;5.85;82.30;98912.23;115502;1203;25123;-81
2021/10/17 03:10:48;;;;;;;59.90;31.30;;;;;;;5.86;82.07;98910.03;115569;1203;22446;-81
2021/10/17 03:13:15;;;;;;;58.70;29.60;;;;;;;5.88;82.32;98911.98;113878;1196;137516;-81
2021/10/17 03:15:42;;;;;;;55.50;30.10;;;;;;;5.89;82.41;98911.25;114256;1202;22646;-83
2021/10/17 03:18:13;;;;;;;60.80;29.30;;;;;;;5.89;82.39;98909.24;113838;1202;138047;-83
2021/10/17 03:20:40;;;;;;;60.70;30.80;;;;;;;5.90;82.35;98909.13;114224;1202;22673;-83
2021/10/17 03:23:08;;;;;;;55.60;29.60;;;;;;;5.89;82.47;98911.41;115471;1196;22467;-81
2021/10/17 03:25:35;;;;;;;60.90;28.40;;;;;;;5.88;82.09;98912.54;114300;1203;137772;-82
2021/10/17 03:28:04;;;;;;;58.90;29.30;;;;;;;5.89;82.27;98905.17;114345;1197;22975;-83
2021/10/17 03:30:31;;;;;;;61.60;31.10;;;;;;;5.91;82.27;98906.35;113681;1203;138092;-81
2021/10/17 03:32:58;;;;;;;59.70;29.80;;;;;;;5.89;82.15;98903.52;114966;1203;25023;-81
2021/10/17 03:35:25;;;;;;;53.20;29.60;;;;;;;5.85;82.04;98905.13;115587;1197;25123;-81
2021/10/17 03:37:52;;;;;;;62.20;30.50;;;;;;;5.83;82.18;98906.66;115372;1202;138079;-81
2021/10/17 03:40:20;;;;;;;52.00;28.70;;;;;;;5.83;82.08;98907.15;115333;1200;22465;-81
2021/10/17 03:42:47;;;;;;;54.90;28.10;;;;;;;5.84;82.10;98903.16;114317;1202;137693;-81
2021/10/17 03:45:15;;;;;;;61.90;30.40;;;;;;;5.86;82.16;98900.64;114832;1195;22233;-81
2021/10/17 03:47:41;;;;;;;64.60;31.60;;;;;;;5.86;82.19;98898.39;114375;1200;137802;-81
2021/10/17 03:50:09;;;;;;;62.60;31.70;;;;;;;5.85;82.09;98899.44;114994;1203;22421;-81
2021/10/17 03:52:36;;;;;;;57.90;28.20;;;;;;;5.84;82.10;98900.38;114289;1203;22450;-83
2021/10/17 03:55:04;;;;;;;53.60;28.70;;;;;;;5.87;82.06;98903.09;113914;1195;137638;-83
2021/10/17 03:57:31;;;;;;;57.30;27.80;;;;;;;5.86;81.94;98900.09;115645;1202;22238;-84
2021/10/17 03:59:58;;;;;;;57.50;31.00;;;;;;;5.86;81.77;98900.64;114069;1202;137481;-83
2021/10/17 04:02:26;;;;;;;61.40;29.60;;;;;;;5.84;81.93;98899.85;114348;1203;25120;-83
2021/10/17 04:04:54;;;;;;;62.20;30.70;;;;;;;5.80;81.60;98900.75;113921;1197;23168;-83
2021/10/17 04:07:41;;;;;;;59.10;30.70;;;;;;;5.75;81.75;98901.59;114138;1204;138000;-83
2021/10/17 04:10:09;;;;;;;60.10;30.00;;;;;;;5.73;82.04;98903.01;114657;1203;22565;-83
2021/10/17 04:12:36;;;;;;;58.10;29.80;;;;;;;5.65;81.70;98901.39;115026;1196;138198;-83
2021/10/17 04:15:07;;;;;;;60.10;28.30;;;;;;;5.56;81.85;98904.27;115058;1200;22335;-83
2021/10/17 04:17:39;;;;;;;54.10;27.60;;;;;;;5.47;81.95;98895.34;114269;1202;137646;-83
2021/10/17 04:20:08;;;;;;;58.20;30.10;;;;;;;5.42;82.14;98894.56;114924;1203;22183;-84
2021/10/17 04:22:35;;;;;;;51.60;27.10;;;;;;;5.40;82.37;98893.45;114221;1202;23054;-83
2021/10/17 04:25:16;;;;;;;48.90;26.20;;;;;;;5.43;82.51;98893.79;114074;1196;138031;-84
2021/10/17 04:27:45;;;;;;;53.40;27.60;;;;;;;5.45;82.64;98889.88;114028;1201;22473;-83
2021/10/17 04:30:27;;;;;;;61.10;30.60;;;;;;;5.46;82.78;98897.42;114008;1203;137378;-83
2021/10/17 04:32:54;;;;;;;57.50;29.50;;;;;;;5.46;82.80;98900.73;114264;1202;23153;-83
2021/10/17 04:35:20;;;;;;;53.70;27.20;;;;;;;5.41;82.46;98900.46;114260;1199;22571;-83
2021/10/17 04:37:47;;;;;;;49.70;26.10;;;;;;;5.38;82.53;98904.48;115128;1203;138213;-80
2021/10/17 04:40:17;;;;;;;46.20;25.40;;;;;;;5.37;82.67;98903.73;115412;1203;22461;-82
2021/10/17 04:42:44;;;;;;;50.00;28.50;;;;;;;5.36;82.81;98902.94;113810;1203;137954;-81
2021/10/17 04:45:11;;;;;;;50.10;27.10;;;;;;;5.36;82.83;98904.69;114364;1196;22919;-82
2021/10/17 04:47:39;;;;;;;54.60;28.00;;;;;;;5.38;82.85;98904.56;114740;1202;138046;-81
2021/10/17 04:50:20;;;;;;;48.90;26.60;;;;;;;5.38;82.66;98905.39;114777;1202;22486;-81
2021/10/17 04:52:47;;;;;;;52.00;26.80;;;;;;;5.37;82.49;98901.70;114982;1201;22127;-81
2021/10/17 04:55:14;;;;;;;63.30;29.10;;;;;;;5.36;82.65;98904.89;114141;1197;137403;-82
2021/10/17 04:57:57;;;;;;;57.00;31.00;;;;;;;5.36;82.83;98902.90;114191;1203;25177;-82
2021/10/17 05:00:27;;;;;;;58.90;30.30;;;;;;;5.34;82.88;98908.95;114907;1196;137610;-82
2021/10/17 05:02:57;;;;;;;55.30;29.00;;;;;;;5.35;82.91;98909.95;115057;1203;22545;-82
2021/10/17 05:05:24;;;;;;;59.40;28.60;;;;;;;5.37;82.90;98913.34;114015;1196;25281;-82
2021/10/17 05:08:05;;;;;;;51.20;28.60;;;;;;;5.30;82.60;98909.47;114086;1202;137345;-82
2021/10/17 05:10:50;;;;;;;55.10;29.60;;;;;;;5.27;83.15;98911.95;114161;1202;24401;-82
2021/10/17 05:13:31;;;;;;;60.90;31.50;;;;;;;5.26;83.16;98914.11;114545;1196;137445;-82
2021/10/17 05:15:59;;;;;;;58.20;30.30;;;;;;;5.25;83.30;98917.12;114090;1197;22217;-82
2021/10/17 05:18:41;;;;;;;58.40;32.00;;;;;;;5.26;83.49;98921.54;114827;1204;138741;-82
2021/10/17 05:21:08;;;;;;;58.80;31.50;;;;;;;5.27;83.31;98920.27;115354;1204;22467;-82
2021/10/17 05:23:35;;;;;;;62.80;32.10;;;;;;;5.27;83.49;98923.63;115149;1203;22463;-82
2021/10/17 05:26:04;;;;;;;58.10;31.10;;;;;;;5.29;83.49;98927.28;115194;1196;138187;-82
2021/10/17 05:28:31;;;;;;;61.80;31.70;;;;;;;5.29;83.57;98927.79;115046;1201;23113;-82
2021/10/17 05:31:03;;;;;;;61.40;32.00;;;;;;;5.33;83.77;98929.10;114602;1196;138037;-82
2021/10/17 05:33:39;;;;;;;56.40;31.70;;;;;;;5.36;83.58;98932.11;114000;1202;22526;-82
2021/10/17 05:36:19;;;;;;;65.00;35.30;;;;;;;5.39;83.55;98936.77;114080;1197;138347;-82
2021/10/17 05:38:49;;;;;;;59.80;34.70;;;;;;;5.41;83.82;98938.52;113802;1197;25236;-81
2021/10/17 05:41:16;;;;;;;73.70;35.10;;;;;;;5.43;83.90;98945.80;114339;1204;25087;-81
2021/10/17 05:43:57;;;;;;;63.00;34.30;;;;;;;5.46;83.74;98948.45;114512;1204;138334;-82
2021/10/17 05:46:24;;;;;;;60.60;33.30;;;;;;;5.51;83.83;98946.77;114527;1196;24074;-83
2021/10/17 05:48:53;;;;;;;66.40;35.20;;;;;;;5.56;83.76;98953.27;115918;1202;137789;-82
2021/10/17 05:51:20;;;;;;;65.30;33.10;;;;;;;5.61;83.85;98954.09;114372;1202;25487;-82
2021/10/17 05:53:49;;;;;;;67.20;33.60;;;;;;;5.66;83.62;98955.19;114767;1202;138938;-82
2021/10/17 05:56:16;;;;;;;65.60;31.70;;;;;;;5.72;83.60;98952.84;114282;1197;22541;-82
2021/10/17 05:58:57;;;;;;;57.30;31.70;;;;;;;5.79;83.61;98950.80;114760;1202;25161;-82
2021/10/17 06:01:25;;;;;;;66.30;34.30;;;;;;;5.85;83.72;98952.31;114686;1202;138305;-82
2021/10/17 06:04:18;;;;;;;65.50;32.30;;;;;;;5.92;83.52;98953.21;113811;1202;25222;-82
2021/10/17 06:06:57;;;;;;;68.10;34.40;;;;;;;5.96;83.42;98951.75;113806;1197;137895;-82
2021/10/17 06:09:24;;;;;;;61.10;34.50;;;;;;;5.98;83.27;98955.02;113993;1202;22462;-82
2021/10/17 06:11:53;;;;;;;61.50;31.60;;;;;;;6.02;83.32;98956.98;113953;1202;138009;-81
2021/10/17 06:14:20;;;;;;;63.60;33.20;;;;;;;6.04;83.25;98957.83;114284;1202;23305;-82
2021/10/17 06:16:47;;;;;;;65.10;34.40;;;;;;;6.06;82.94;98959.20;114491;1195;22434;-81
2021/10/17 06:19:14;;;;;;;64.40;35.40;;;;;;;6.06;83.02;98960.95;113576;1202;137742;-82
2021/10/17 06:21:46;;;;;;;61.10;33.10;;;;;;;6.10;83.25;98961.50;114181;1187;22499;-81
2021/10/17 06:24:13;;;;;;;60.30;33.60;;;;;;;6.13;82.87;98961.19;113786;1202;138291;-82
2021/10/17 06:26:42;;;;;;;59.00;32.80;;;;;;;6.15;82.89;98962.39;113805;1203;25104;-82
2021/10/17 06:29:23;;;;;;;62.30;33.80;;;;;;;6.19;83.02;98961.77;113795;1203;29820;-81
2021/10/17 06:31:50;;;;;;;60.90;35.20;;;;;;;6.23;83.07;98962.48;114530;1201;140067;-82
2021/10/17 06:34:16;;;;;;;66.10;32.90;;;;;;;6.27;82.82;98963.63;114190;1202;24033;-82
2021/10/17 06:36:44;;;;;;;60.60;32.30;;;;;;;6.29;82.77;98968.25;113754;1202;137462;-82
2021/10/17 06:39:11;;;;;;;57.40;31.20;;;;;;;6.32;82.76;98972.46;113877;1196;25411;-82
2021/10/17 06:41:38;;;;;;;54.30;30.70;;;;;;;6.36;82.83;98975.38;114098;1203;22496;-82
2021/10/17 06:44:15;;;;;;;64.90;34.10;;;;;;;6.40;82.19;98971.69;113760;1203;137159;-82
2021/10/17 06:46:43;;;;;;;53.30;30.30;;;;;;;6.41;82.25;98976.97;113865;1203;22542;-82
2021/10/17 06:49:10;;;;;;;57.50;29.80;;;;;;;6.37;82.09;98976.50;113934;1196;137866;-82
2021/10/17 06:51:37;;;;;;;62.50;32.20;;;;;;;6.38;82.29;98980.70;114138;1202;22464;-82
2021/10/17 06:54:04;;;;;;;52.00;29.40;;;;;;;6.42;82.40;98975.31;114295;1202;138566;-82
2021/10/17 06:56:31;;;;;;;54.90;28.50;;;;;;;6.48;81.85;98976.02;115442;1200;22510;-82
2021/10/17 06:58:58;;;;;;;59.60;31.10;;;;;;;6.54;82.34;98977.20;114215;1197;24078;-82
2021/10/17 07:01:25;;;;;;;54.90;31.00;;;;;;;6.58;82.10;98976.36;113906;1191;137877;-82
2021/10/17 07:03:55;;;;;;;54.80;28.00;;;;;;;6.63;82.19;98977.20;114080;1190;22452;-83
2021/10/17 07:06:27;;;;;;;49.10;28.20;;;;;;;6.69;81.70;98983.33;115100;1203;138339;-83
2021/10/17 07:09:06;;;;;;;49.40;26.70;;;;;;;6.74;81.76;98983.33;115792;1196;22435;-82
2021/10/17 07:11:54;;;;;;;51.90;26.80;;;;;;;6.84;81.95;98981.68;114357;1202;137546;-82
2021/10/17 07:14:26;;;;;;;53.00;27.30;;;;;;;6.90;81.51;98985.55;114459;1202;25049;-83
2021/10/17 07:17:12;;;;;;;49.70;25.90;;;;;;;6.95;81.35;98985.73;114971;1186;22484;-83
2021/10/17 07:19:53;;;;;;;52.80;28.00;;;;;;;7.00;81.10;98988.05;114080;1196;138971;-83
2021/10/17 07:22:20;;;;;;;49.20;27.00;;;;;;;7.06;80.89;98988.98;113932;1203;22451;-82
2021/10/17 07:24:48;;;;;;;45.40;25.90;;;;;;;7.11;80.69;98987.38;115457;1203;138781;-83
2021/10/17 07:27:15;;;;;;;45.30;26.90;;;;;;;7.16;80.72;98988.67;115397;1203;22451;-83
2021/10/17 07:29:42;;;;;;;55.90;28.90;;;;;;;7.21;80.63;98987.91;114299;1196;22451;-83
2021/10/17 07:32:10;;;;;;;50.90;27.10;;;;;;;7.28;80.73;98989.98;114175;1201;137219;-83
2021/10/17 07:34:37;;;;;;;49.80;27.20;;;;;;;7.34;80.64;98990.73;114110;1203;22466;-83
2021/10/17 07:37:04;;;;;;;58.50;30.80;;;;;;;7.42;80.04;98991.80;114285;1203;138461;-83
2021/10/17 07:39:34;;;;;;;48.10;27.50;;;;;;;7.48;79.81;98989.04;114237;1195;25124;-83
2021/10/17 07:42:17;;;;;;;50.40;27.30;;;;;;;7.53;79.75;98989.88;114259;1203;137563;-83
2021/10/17 07:44:46;;;;;;;50.10;26.60;;;;;;;7.56;79.33;98989.60;113981;1195;22461;-83
2021/10/17 07:47:16;;;;;;;45.70;24.60;;;;;;;7.57;79.05;98986.27;114469;1202;24077;-83
2021/10/17 07:50:05;;;;;;;47.10;26.70;;;;;;;7.57;79.09;98988.67;114740;1196;137627;-83
2021/10/17 07:52:39;;;;;;;39.80;23.80;;;;;;;7.61;79.34;98990.03;115660;1203;22371;-83
2021/10/17 07:55:28;;;;;;;42.30;23.60;;;;;;;7.71;79.20;98993.02;116431;1203;138217;-83
2021/10/17 07:57:59;;;;;;;44.40;25.30;;;;;;;7.82;79.19;98990.15;116538;1203;23184;-83
2021/10/17 08:00:37;;;;;;;44.40;25.20;;;;;;;7.92;78.88;98987.73;115675;1197;137638;-83
2021/10/17 08:03:22;;;;;;;47.40;25.70;;;;;;;8.01;78.24;98990.41;115242;1189;22347;-82
2021/10/17 08:05:59;;;;;;;46.70;24.60;;;;;;;8.08;78.24;98984.98;114365;1203;138153;-83
2021/10/17 08:08:26;;;;;;;40.30;21.30;;;;;;;8.16;77.59;98987.38;113799;1203;23785;-82
2021/10/17 08:10:53;;;;;;;43.20;21.00;;;;;;;8.23;77.46;98990.98;113687;1196;22445;-82
2021/10/17 08:13:20;;;;;;;38.70;21.10;;;;;;;8.30;77.42;98988.05;113765;1203;139028;-82
2021/10/17 08:15:51;;;;;;;40.90;21.40;;;;;;;8.44;77.45;98990.46;113911;1188;22905;-82
2021/10/17 08:18:20;;;;;;;42.70;22.50;;;;;;;8.56;76.72;98991.06;114545;1201;137507;-85
2021/10/17 08:20:56;;;;;;;28.40;16.40;;;;;;;8.69;75.68;98989.19;113859;1196;24141;-83
2021/10/17 08:23:24;;;;;;;27.30;16.20;;;;;;;8.80;75.33;98991.79;113771;1203;22477;-83
2021/10/17 08:25:51;;;;;;;33.20;16.30;;;;;;;8.93;74.57;98993.77;113828;1203;137960;-83
2021/10/17 08:28:19;;;;;;;24.10;13.50;;;;;;;8.99;73.60;98999.74;114419;1196;22555;-83
2021/10/17 08:30:48;;;;;;;28.60;15.20;;;;;;;9.04;72.21;98998.86;114984;1197;137418;-83
2021/10/17 08:33:16;;;;;;;25.20;14.30;;;;;;;9.07;71.94;99000.67;115036;1201;22432;-84
2021/10/17 08:35:45;;;;;;;25.70;12.70;;;;;;;9.10;71.81;99003.58;115205;1195;22420;-83
2021/10/17 08:38:14;;;;;;;;;;;;;;;9.17;71.97;99000.31;115006;1202;137313;-83
2021/10/17 08:40:53;;;;;;;20.40;11.50;;;;;;;9.23;70.51;99003.50;114547;1196;23799;-83
2021/10/17 08:43:32;;;;;;;20.00;10.50;;;;;;;9.30;70.07;99000.40;114314;1195;137461;-83
2021/10/17 08:46:11;;;;;;;22.20;10.60;;;;;;;9.38;69.48;98998.14;114455;1203;24063;-82
2021/10/17 08:48:50;;;;;;;23.00;11.50;;;;;;;9.43;68.75;98998.72;114552;1196;137765;-84
2021/10/17 08:51:22;;;;;;;18.80;10.30;;;;;;;9.55;68.82;98992.25;114357;1195;24040;-84
2021/10/17 08:53:54;;;;;;;18.00;10.40;;;;;;;9.69;68.43;98986.82;114498;1196;22459;-83
2021/10/17 08:56:24;;;;;;;18.30;9.80;;;;;;;9.83;68.15;98988.14;114005;1202;137915;-83
2021/10/17 08:58:51;;;;;;;18.20;9.70;;;;;;;9.96;67.49;98986.92;114106;1202;24093;-83
2021/10/17 09:01:23;;;;;;;15.50;8.60;;;;;;;10.09;66.95;98986.39;114271;1196;22433;-84
2021/10/17 09:03:58;;;;;;;21.10;10.50;;;;;;;10.22;65.68;98981.91;114513;1198;24024;-82
2021/10/17 09:06:41;;;;;;;17.40;9.00;;;;;;;10.31;65.19;98981.19;114348;1202;25111;-82
2021/10/17 09:09:11;;;;;;;16.10;9.20;;;;;;;10.38;64.83;98983.66;114354;1196;22466;-83
2021/10/17 09:12:00;;;;;;;13.70;7.40;;;;;;;10.50;64.40;98985.09;114028;1195;22597;-83
2021/10/17 09:14:30;;;;;;;13.80;7.80;;;;;;;10.58;63.17;98988.14;113310;1189;25375;-84
2021/10/17 09:17:11;;;;;;;13.90;7.50;;;;;;;10.70;63.04;98985.70;113324;1204;22719;-85
2021/10/17 09:19:38;;;;;;;14.40;6.90;;;;;;;10.79;62.08;98986.70;113433;1203;25108;-84
2021/10/17 09:22:07;;;;;;;13.60;8.10;;;;;;;10.92;61.34;98985.13;113272;1196;25277;-85
2021/10/17 09:24:46;;;;;;;9.80;6.80;;;;;;;11.00;60.76;98986.79;113082;1203;22682;-86
2021/10/17 09:27:23;;;;;;;12.20;6.90;;;;;;;11.04;60.80;98985.09;113372;1203;22454;-85
2021/10/17 09:29:52;;;;;;;11.70;6.60;;;;;;;11.07;60.48;98984.45;113062;1203;22913;-84
2021/10/17 09:32:33;;;;;;;14.80;7.10;;;;;;;11.13;60.91;98980.66;113185;1202;24150;-83
2021/10/17 09:35:06;;;;;;;13.00;7.50;;;;;;;11.23;60.74;98976.83;113308;1192;24084;-85
2021/10/17 09:37:49;;;;;;;8.20;5.10;;;;;;;11.35;59.66;98973.27;113286;1202;25155;-84
2021/10/17 09:40:37;;;;;;;10.10;5.60;;;;;;;11.33;58.16;98972.27;113309;1202;22426;-85
2021/10/17 09:43:29;;;;;;;11.70;5.50;;;;;;;11.34;57.53;98973.70;113821;1203;31755;-86
2021/10/17 09:46:11;;;;;;;9.70;5.70;;;;;;;11.43;57.17;98970.70;113164;1203;23789;-86
2021/10/17 09:48:39;;;;;;;13.20;7.10;;;;;;;11.50;57.40;98964.95;113114;1203;25010;-85
2021/10/17 09:51:26;;;;;;;13.30;5.90;;;;;;;11.44;56.52;98969.23;113263;1196;24086;-85
2021/10/17 09:53:58;;;;;;;10.00;5.90;;;;;;;11.34;56.43;98965.02;113369;1202;22437;-84
2021/10/17 09:56:41;;;;;;;9.60;4.70;;;;;;;11.30;56.67;98961.45;113637;1202;22760;-84
2021/10/17 09:59:13;;;;;;;3.20;2.20;;;;;;;11.28;55.68;98960.73;113972;1202;25102;-84
2021/10/17 10:01:42;;;;;;;3.80;2.50;;;;;;;11.26;54.86;98953.83;113527;1196;25048;-84
2021/10/17 10:04:11;;;;;;;3.90;2.50;;;;;;;11.33;54.55;98956.61;113909;1202;24129;-84
2021/10/17 10:06:39;;;;;;;4.40;2.50;;;;;;;11.51;53.75;98957.30;113478;1203;23096;-84
2021/10/17 10:09:08;;;;;;;4.30;2.10;;;;;;;11.69;52.11;98952.95;113203;1203;25100;-84
2021/10/17 10:11:38;;;;;;;5.80;2.50;;;;;;;11.84;51.74;98950.42;113599;1196;25024;-84
2021/10/17 10:14:08;;;;;;;4.90;2.70;;;;;;;12.01;51.76;98952.09;114246;1202;22827;-84
2021/10/17 10:16:36;;;;;;;5.10;2.70;;;;;;;12.09;51.03;98950.73;114688;1202;22481;-84
2021/10/17 10:19:05;;;;;;;4.90;3.20;;;;;;;12.18;50.91;98953.03;114079;1202;22524;-85
2021/10/17 10:21:35;;;;;;;3.00;2.70;;;;;;;12.18;49.09;98954.89;113928;1202;22553;-84
2021/10/17 10:24:06;;;;;;;3.50;2.50;;;;;;;12.06;49.49;98956.19;113615;1203;22466;-84
2021/10/17 10:26:35;;;;;;;3.80;2.40;;;;;;;12.01;48.82;98953.44;113635;1203;25049;-84
2021/10/17 10:29:03;;;;;;;5.70;3.00;;;;;;;11.91;48.33;98952.70;113798;1201;22434;-82
2021/10/17 10:31:59;;;;;;;4.70;2.90;;;;;;;11.81;47.89;98953.99;113741;1186;24883;-82
2021/10/17 10:34:39;;;;;;;4.80;4.10;;;;;;;11.85;50.23;98946.76;114070;1200;31023;-83
2021/10/17 10:37:26;;;;;;;5.30;2.90;;;;;;;11.78;49.72;98949.80;114054;1202;23239;-83
2021/10/17 10:40:15;;;;;;;5.20;3.10;;;;;;;11.76;49.88;98943.05;114013;1202;22486;-83
2021/10/17 10:43:15;;;;;;;4.90;3.10;;;;;;;11.66;49.21;98942.94;113813;1196;23055;-82
2021/10/17 10:45:42;;;;;;;7.70;3.90;;;;;;;11.53;49.27;98943.41;114041;1196;22462;-83
2021/10/17 10:48:12;;;;;;;8.30;3.80;;;;;;;11.40;49.20;98946.45;114018;1202;22451;-83
2021/10/17 10:50:57;;;;;;;6.80;4.00;;;;;;;11.34;50.74;98943.04;113942;1202;22455;-83
2021/10/17 10:53:51;;;;;;;6.50;3.30;;;;;;;11.36;51.01;98943.97;113960;1196;22456;-83
2021/10/17 10:56:41;;;;;;;5.10;3.40;;;;;;;11.38;50.71;98943.59;113839;1203;25202;-84
2021/10/17 10:59:09;;;;;;;6.40;3.40;;;;;;;11.38;50.54;98944.41;114504;1203;22595;-82
2021/10/17 11:01:58;;;;;;;7.00;3.70;;;;;;;11.35;50.66;98941.48;115006;1203;24119;-82
2021/10/17 11:04:37;;;;;;;7.20;3.60;;;;;;;11.32;50.56;98939.94;113372;1196;25267;-85
2021/10/17 11:07:21;;;;;;;5.50;3.50;;;;;;;11.28;50.73;98943.67;113386;1188;22574;-84
2021/10/17 11:09:50;;;;;;;6.80;4.00;;;;;;;11.22;50.94;98942.14;113392;1203;26397;-84
2021/10/17 11:12:36;;;;;;;;;;;;;;;11.24;50.46;98937.36;113135;1203;22497;-84
2021/10/17 11:15:03;;;;;;;4.90;3.40;;;;;;;11.29;50.96;98936.52;113372;1196;22458;-85
2021/10/17 11:17:30;;;;;;;5.40;4.20;;;;;;;11.35;50.71;98935.17;113259;1202;24187;-85
2021/10/17 11:19:57;;;;;;;7.20;4.10;;;;;;;11.40;51.09;98926.49;113059;1203;24039;-85
2021/10/17 11:22:24;;;;;;;6.80;3.80;;;;;;;11.46;50.70;98923.45;113299;1203;22440;-84
2021/10/17 11:24:54;;;;;;;7.90;3.90;;;;;;;11.50;51.13;98918.58;113295;1196;25003;-85
2021/10/17 11:27:34;;;;;;;7.80;3.70;;;;;;;11.63;50.60;98915.92;113265;1202;25132;-82
2021/10/17 11:30:35;;;;;;;5.00;2.80;;;;;;;11.85;50.21;98911.84;113163;1203;22458;-86
2021/10/17 11:33:16;;;;;;;6.40;3.70;;;;;;;11.87;49.24;98906.91;113297;1203;25088;-84
2021/10/17 11:35:43;;;;;;;5.00;3.40;;;;;;;11.81;50.13;98901.72;113301;1203;30756;-83
2021/10/17 11:38:29;;;;;;;5.70;3.40;;;;;;;11.79;49.92;98905.61;113229;1203;24021;-83